createdAt,value
2022-11-19T00:02:01.431Z,71.03
2022-11-19T00:04:29.533Z,71.14
2022-11-19T00:06:57.524Z,71.34
2022-11-19T00:09:25.872Z,70.90
2022-11-19T00:12:11.889Z,71.16
2022-11-19T00:14:39.942Z,71.14
2022-11-19T00:17:08.038Z,71.19
2022-11-19T00:19:35.976Z,71.17
2022-11-19T00:22:03.854Z,70.98
2022-11-19T00:24:31.707Z,71.21
2022-11-19T00:26:59.695Z,71.31
2022-11-19T00:29:27.641Z,71.22
2022-11-19T00:31:55.510Z,71.56
2022-11-19T00:34:23.833Z,71.54
2022-11-19T00:36:51.747Z,71.10
2022-11-19T00:39:21.291Z,70.99
2022-11-19T00:41:49.631Z,70.74
2022-11-19T00:44:17.495Z,71.21
2022-11-19T00:46:45.794Z,70.91
2022-11-19T00:49:13.634Z,70.94
2022-11-19T00:51:41.612Z,71.04
2022-11-19T00:54:09.416Z,70.90
2022-11-19T00:56:37.336Z,71.01
2022-11-19T00:59:05.711Z,70.93
2022-11-19T01:01:33.618Z,70.76
2022-11-19T01:04:01.655Z,70.91
2022-11-19T01:06:29.619Z,71.19
2022-11-19T01:08:58.302Z,71.02
2022-11-19T01:11:29.443Z,71.10
2022-11-19T01:14:01.641Z,71.56
2022-11-19T01:16:36.646Z,71.33
2022-11-19T01:19:07.377Z,71.40
2022-11-19T01:21:38.317Z,71.10
2022-11-19T01:24:07.075Z,71.41
2022-11-19T01:26:35.073Z,71.19
2022-11-19T01:29:03.446Z,71.25
2022-11-19T01:31:31.320Z,71.22
2022-11-19T01:34:00.048Z,71.90
2022-11-19T01:36:29.809Z,71.29
2022-11-19T01:38:58.595Z,71.44
2022-11-19T01:41:29.951Z,71.46
2022-11-19T01:44:03.954Z,71.42
2022-11-19T01:46:35.461Z,71.55
2022-11-19T01:49:11.350Z,71.79
2022-11-19T01:51:44.345Z,71.91
2022-11-19T01:54:39.442Z,71.76
2022-11-19T01:57:11.615Z,72.01
2022-11-19T01:59:40.007Z,71.97
2022-11-19T02:02:07.962Z,71.72
2022-11-19T02:04:36.646Z,72.05
2022-11-19T02:07:04.759Z,71.83
2022-11-19T02:09:33.663Z,71.74
2022-11-19T02:12:26.664Z,71.81
2022-11-19T02:15:19.311Z,72.16
2022-11-19T02:18:11.816Z,71.74
2022-11-19T02:20:51.513Z,71.77
2022-11-19T02:23:45.814Z,71.94
2022-11-19T02:26:35.266Z,71.79
2022-11-19T02:29:31.557Z,71.93
2022-11-19T02:32:34.784Z,71.98
2022-11-19T02:35:34.873Z,72.07
2022-11-19T02:38:19.047Z,72.37
2022-11-19T02:41:33.710Z,71.95
2022-11-19T02:44:51.749Z,71.84
2022-11-19T02:47:23.917Z,72.00
2022-11-19T02:49:56.394Z,71.97
2022-11-19T02:52:24.357Z,72.23
2022-11-19T02:54:52.221Z,71.79
2022-11-19T02:57:20.089Z,72.29
2022-11-19T03:00:12.635Z,72.18
2022-11-19T03:03:03.845Z,72.01
2022-11-19T03:05:35.859Z,72.06
2022-11-19T03:08:04.504Z,71.97
2022-11-19T03:10:48.814Z,72.09
2022-11-19T03:13:42.209Z,72.31
2022-11-19T03:16:39.565Z,72.31
2022-11-19T03:19:13.758Z,72.58
2022-11-19T03:21:53.172Z,72.51
2022-11-19T03:24:28.496Z,72.28
2022-11-19T03:27:07.920Z,72.30
2022-11-19T03:29:41.595Z,72.32
2022-11-19T03:32:16.700Z,72.48
2022-11-19T03:34:47.776Z,72.44
2022-11-19T03:37:19.863Z,72.44
2022-11-19T03:39:49.343Z,72.55
2022-11-19T03:42:20.481Z,72.62
2022-11-19T03:44:52.040Z,72.50
2022-11-19T03:47:26.585Z,72.75
2022-11-19T03:50:02.386Z,72.96
2022-11-19T03:52:30.376Z,72.80
2022-11-19T03:54:58.342Z,72.66
2022-11-19T03:57:27.479Z,72.73
2022-11-19T03:59:55.280Z,72.81
2022-11-19T04:02:23.312Z,73.07
2022-11-19T04:04:51.239Z,72.88
2022-11-19T04:07:23.020Z,72.94
2022-11-19T04:09:51.066Z,73.13
2022-11-19T04:12:25.492Z,73.25
2022-11-19T04:14:53.470Z,73.09
2022-11-19T04:17:21.369Z,73.27
2022-11-19T04:19:49.286Z,73.89
2022-11-19T04:22:17.152Z,73.59
2022-11-19T04:24:45.223Z,73.42
2022-11-19T04:27:13.230Z,73.72
2022-11-19T04:29:41.160Z,73.88
2022-11-19T04:32:09.037Z,73.87
2022-11-19T04:34:36.888Z,73.90
2022-11-19T04:37:04.888Z,73.74
2022-11-19T04:39:32.828Z,74.11
2022-11-19T04:42:00.692Z,73.93
2022-11-19T04:44:28.557Z,73.67
2022-11-19T04:46:56.424Z,74.12
2022-11-19T04:49:24.290Z,74.72
2022-11-19T04:51:52.142Z,74.37
2022-11-19T04:54:19.934Z,74.89
2022-11-19T04:56:47.890Z,74.78
2022-11-19T04:59:15.749Z,75.19
2022-11-19T05:01:43.646Z,75.03
2022-11-19T05:04:11.818Z,75.05
2022-11-19T05:06:39.959Z,74.94
2022-11-19T05:09:07.958Z,74.49
2022-11-19T05:11:35.802Z,74.45
2022-11-19T05:14:03.663Z,74.77
2022-11-19T05:16:31.528Z,75.09
2022-11-19T05:18:59.318Z,74.52
2022-11-19T05:21:28.014Z,74.53
2022-11-19T05:23:55.943Z,74.80
2022-11-19T05:26:23.816Z,74.28
2022-11-19T05:28:51.672Z,75.02
2022-11-19T05:31:19.490Z,74.56
2022-11-19T05:33:47.611Z,74.35
2022-11-19T05:36:15.477Z,74.10
2022-11-19T05:38:43.280Z,74.69
2022-11-19T05:41:11.107Z,75.75
2022-11-19T05:43:38.971Z,74.87
2022-11-19T05:46:06.833Z,74.65
2022-11-19T05:48:34.704Z,74.91
2022-11-19T05:51:02.677Z,74.68
2022-11-19T05:53:30.468Z,74.70
2022-11-19T05:55:58.400Z,75.50
2022-11-19T05:58:26.281Z,75.99
2022-11-19T06:00:55.729Z,76.65
2022-11-19T06:03:23.950Z,75.05
2022-11-19T06:05:52.736Z,75.46
2022-11-19T06:08:20.593Z,75.96
2022-11-19T06:10:48.460Z,75.04
2022-11-19T06:13:17.209Z,74.59
2022-11-19T06:15:45.110Z,74.86
2022-11-19T06:18:13.088Z,74.97
2022-11-19T06:20:41.066Z,74.68
2022-11-19T06:23:08.915Z,74.61
2022-11-19T06:25:36.881Z,74.97
2022-11-19T06:28:05.259Z,74.90
2022-11-19T06:30:33.126Z,75.20
2022-11-19T06:33:00.936Z,75.19
2022-11-19T06:35:28.810Z,75.19
2022-11-19T06:37:56.600Z,75.16
2022-11-19T06:40:24.438Z,75.10
2022-11-19T06:42:52.197Z,75.13
2022-11-19T06:45:20.202Z,74.94
2022-11-19T06:47:49.430Z,75.47
2022-11-19T06:50:18.220Z,75.16
2022-11-19T06:52:46.191Z,75.21
2022-11-19T06:55:14.500Z,75.38
2022-11-19T06:57:42.355Z,75.34
2022-11-19T07:00:11.152Z,75.94
2022-11-19T07:02:39.066Z,75.94
2022-11-19T07:05:07.900Z,76.46
2022-11-19T07:07:35.899Z,75.92
2022-11-19T07:10:04.639Z,76.12
2022-11-19T07:12:32.684Z,75.84
2022-11-19T07:15:04.307Z,76.07
2022-11-19T07:17:33.848Z,75.96
2022-11-19T07:20:02.929Z,76.18
2022-11-19T07:22:31.518Z,76.11
2022-11-19T07:24:59.380Z,75.96
2022-11-19T07:27:27.248Z,75.92
2022-11-19T07:29:55.024Z,76.26
2022-11-19T07:32:22.869Z,76.73
2022-11-19T07:34:50.851Z,76.47
2022-11-19T07:37:18.910Z,76.13
2022-11-19T07:39:47.181Z,75.91
2022-11-19T07:42:33.514Z,76.02
2022-11-19T07:45:01.567Z,76.15
2022-11-19T07:47:29.369Z,76.64
2022-11-19T07:49:57.283Z,76.51
2022-11-19T07:52:25.162Z,76.16
2022-11-19T07:54:52.970Z,76.14
2022-11-19T07:57:23.524Z,76.21
2022-11-19T07:59:53.764Z,76.38
2022-11-19T08:02:21.551Z,76.29
2022-11-19T08:04:49.498Z,76.29
2022-11-19T08:07:17.495Z,76.27
2022-11-19T08:09:45.331Z,76.40
2022-11-19T08:12:13.195Z,76.25
2022-11-19T08:14:41.061Z,76.24
2022-11-19T08:17:28.177Z,76.43
2022-11-19T08:19:56.055Z,76.32
2022-11-19T08:22:24.426Z,76.39
2022-11-19T08:24:52.533Z,76.36
2022-11-19T08:27:20.460Z,76.39
2022-11-19T08:29:48.322Z,76.30
2022-11-19T08:32:16.297Z,76.27
2022-11-19T08:34:44.213Z,76.40
2022-11-19T08:37:13.778Z,76.38
2022-11-19T08:39:41.629Z,76.27
2022-11-19T08:42:28.995Z,76.10
2022-11-19T08:44:56.919Z,75.83
2022-11-19T08:47:24.786Z,76.21
2022-11-19T08:49:52.648Z,76.10
2022-11-19T08:52:20.514Z,76.22
2022-11-19T08:54:48.690Z,76.02
2022-11-19T08:57:16.554Z,75.90
2022-11-19T08:59:44.421Z,76.05
2022-11-19T09:02:12.317Z,76.10
2022-11-19T09:04:41.601Z,75.99
2022-11-19T09:07:09.490Z,75.95
2022-11-19T09:09:37.425Z,76.08
2022-11-19T09:12:06.041Z,76.04
2022-11-19T09:14:33.831Z,76.02
2022-11-19T09:17:01.653Z,75.99
2022-11-19T09:19:29.602Z,75.80
2022-11-19T09:21:57.462Z,75.82
2022-11-19T09:24:25.428Z,75.93
2022-11-19T09:26:53.505Z,75.78
2022-11-19T09:29:22.599Z,75.94
2022-11-19T09:31:50.416Z,75.98
2022-11-19T09:34:18.737Z,76.06
2022-11-19T09:36:46.878Z,75.61
2022-11-19T09:39:14.778Z,75.53
2022-11-19T09:41:44.842Z,75.82
2022-11-19T09:44:30.882Z,76.01
2022-11-19T09:47:27.221Z,75.88
2022-11-19T09:50:14.312Z,75.61
2022-11-19T09:53:15.538Z,75.55
2022-11-19T09:55:46.067Z,75.17
2022-11-19T09:58:22.555Z,75.00
2022-11-19T10:00:50.406Z,74.36
2022-11-19T10:03:22.438Z,74.49
2022-11-19T10:06:21.866Z,75.26
2022-11-19T10:08:54.965Z,74.01
2022-11-19T10:11:40.991Z,74.75
2022-11-19T10:14:23.907Z,74.92
2022-11-19T10:17:01.414Z,74.59
2022-11-19T10:19:43.552Z,74.32
2022-11-19T10:23:06.695Z,74.14
2022-11-19T10:25:42.343Z,74.35
2022-11-19T10:28:15.339Z,74.33
2022-11-19T10:30:52.186Z,73.44
2022-11-19T10:33:29.735Z,74.32
2022-11-19T10:36:06.571Z,73.93
2022-11-19T10:38:48.575Z,73.62
2022-11-19T10:41:32.786Z,73.99
2022-11-19T10:44:08.345Z,72.98
2022-11-19T10:46:36.607Z,73.98
2022-11-19T10:49:09.082Z,73.24
2022-11-19T10:51:41.656Z,72.18
2022-11-19T10:54:24.326Z,73.12
2022-11-19T10:56:54.233Z,73.00
2022-11-19T10:59:27.844Z,73.73
2022-11-19T11:02:04.117Z,73.59
2022-11-19T11:04:32.023Z,72.54
2022-11-19T11:07:01.497Z,72.86
2022-11-19T11:09:39.867Z,73.13
2022-11-19T11:12:38.524Z,72.47
2022-11-19T11:15:16.006Z,73.04
2022-11-19T11:17:46.960Z,72.94
2022-11-19T11:20:17.776Z,72.54
2022-11-19T11:23:16.531Z,71.93
2022-11-19T11:26:02.564Z,72.70
2022-11-19T11:28:30.730Z,71.96
2022-11-19T11:31:10.885Z,71.79
2022-11-19T11:33:58.332Z,71.49
2022-11-19T11:36:28.836Z,71.48
2022-11-19T11:38:59.671Z,71.19
2022-11-19T11:42:05.561Z,71.17
2022-11-19T11:44:29.868Z,71.69
2022-11-19T11:47:02.590Z,71.83
2022-11-19T11:49:41.476Z,71.72
2022-11-19T11:52:09.703Z,71.78
2022-11-19T11:54:53.532Z,71.91
2022-11-19T11:57:23.991Z,71.97
2022-11-19T11:59:52.022Z,71.80
2022-11-19T12:02:35.261Z,71.10
2022-11-19T12:05:06.339Z,71.41
2022-11-19T12:07:54.632Z,71.56
2022-11-19T12:10:31.825Z,71.31
2022-11-19T12:13:38.599Z,71.35
2022-11-19T12:16:51.209Z,71.42
2022-11-19T12:19:53.176Z,71.47
2022-11-19T12:22:26.878Z,71.30
2022-11-19T12:25:09.898Z,71.12
2022-11-19T12:27:40.563Z,70.96
2022-11-19T12:30:24.473Z,71.33
2022-11-19T12:33:00.935Z,71.65
2022-11-19T12:35:54.725Z,71.48
2022-11-19T12:38:34.357Z,71.07
2022-11-19T12:41:26.178Z,70.72
2022-11-19T12:43:58.405Z,69.90
2022-11-19T12:47:07.892Z,70.27
2022-11-19T12:49:38.312Z,70.37
2022-11-19T12:52:24.638Z,70.26
2022-11-19T12:55:04.486Z,69.85
2022-11-19T12:57:35.396Z,70.39
2022-11-19T13:00:12.075Z,70.18
2022-11-19T13:03:06.851Z,69.98
2022-11-19T13:05:48.040Z,70.23
2022-11-19T13:08:21.440Z,70.33
2022-11-19T13:10:56.161Z,70.38
2022-11-19T13:13:28.751Z,70.36
2022-11-19T13:16:04.700Z,70.31
2022-11-19T13:18:35.635Z,70.42
2022-11-19T13:21:27.070Z,70.21
2022-11-19T13:23:56.490Z,69.76
2022-11-19T13:26:30.117Z,70.11
2022-11-19T13:29:14.913Z,69.83
2022-11-19T13:31:55.475Z,69.21
2022-11-19T13:34:32.280Z,68.40
2022-11-19T13:37:03.105Z,68.84
2022-11-19T13:39:41.812Z,68.94
2022-11-19T13:42:29.643Z,68.73
2022-11-19T13:44:58.629Z,68.91
2022-11-19T13:47:42.070Z,68.40
2022-11-19T13:50:20.799Z,68.14
2022-11-19T13:53:01.888Z,68.60
2022-11-19T13:55:32.708Z,68.28
2022-11-19T13:58:15.102Z,68.80
2022-11-19T14:01:08.108Z,68.46
2022-11-19T14:03:42.574Z,68.39
2022-11-19T14:06:44.789Z,68.33
2022-11-19T14:09:29.580Z,68.13
2022-11-19T14:12:35.359Z,68.38
2022-11-19T14:15:42.776Z,68.51
2022-11-19T14:19:00.994Z,68.05
2022-11-19T14:21:47.155Z,68.10
2022-11-19T14:24:42.710Z,68.29
2022-11-19T14:27:13.340Z,68.66
2022-11-19T14:29:43.928Z,68.35
2022-11-19T14:32:11.712Z,68.13
2022-11-19T14:35:01.612Z,67.90
2022-11-19T14:37:48.080Z,67.83
2022-11-19T14:40:21.261Z,68.01
2022-11-19T14:43:20.206Z,68.20
2022-11-19T14:46:06.600Z,67.93
2022-11-19T14:48:40.388Z,68.47
2022-11-19T14:51:26.716Z,68.32
2022-11-19T14:54:30.054Z,68.08
2022-11-19T14:57:14.909Z,68.30
2022-11-19T14:59:48.987Z,68.40
2022-11-19T15:02:35.380Z,68.47
2022-11-19T15:05:03.240Z,67.98
2022-11-19T15:07:36.134Z,68.39
2022-11-19T15:10:10.356Z,68.30
2022-11-19T15:12:41.282Z,68.60
2022-11-19T15:15:21.433Z,68.71
2022-11-19T15:18:02.403Z,68.70
2022-11-19T15:20:41.208Z,68.70
2022-11-19T15:23:43.086Z,68.82
2022-11-19T15:26:40.851Z,68.78
2022-11-19T15:29:40.160Z,69.04
2022-11-19T15:32:26.154Z,69.01
2022-11-19T15:35:15.418Z,68.93
2022-11-19T15:37:48.916Z,68.96
2022-11-19T15:40:22.370Z,69.18
2022-11-19T15:43:06.724Z,69.58
2022-11-19T15:45:43.996Z,69.48
2022-11-19T15:48:14.587Z,69.37
2022-11-19T15:50:44.080Z,69.46
2022-11-19T15:53:17.090Z,69.48
2022-11-19T15:56:12.268Z,69.35
2022-11-19T15:58:45.104Z,69.51
2022-11-19T16:01:18.375Z,69.51
2022-11-19T16:03:47.373Z,69.42
2022-11-19T16:06:15.097Z,69.65
2022-11-19T16:08:45.733Z,69.97
2022-11-19T16:11:38.454Z,69.72
2022-11-19T16:14:38.807Z,69.87
2022-11-19T16:17:39.931Z,69.61
2022-11-19T16:20:09.878Z,69.32
2022-11-19T16:22:43.367Z,69.36
2022-11-19T16:25:14.504Z,69.56
2022-11-19T16:27:45.440Z,69.49
2022-11-19T16:30:24.789Z,69.87
2022-11-19T16:32:57.144Z,69.70
2022-11-19T16:35:28.161Z,69.80
2022-11-19T16:37:57.078Z,69.80
2022-11-19T16:40:26.086Z,69.99
2022-11-19T16:43:00.589Z,69.88
2022-11-19T16:45:32.035Z,70.23
2022-11-19T16:48:02.366Z,69.91
2022-11-19T16:50:38.925Z,70.08
2022-11-19T16:53:08.939Z,69.96
2022-11-19T16:55:41.149Z,69.77
2022-11-19T16:58:16.871Z,70.22
2022-11-19T17:00:51.080Z,70.05
2022-11-19T17:03:22.024Z,70.11
2022-11-19T17:05:52.990Z,70.05
2022-11-19T17:08:26.297Z,70.34
2022-11-19T17:11:35.407Z,70.21
2022-11-19T17:14:40.586Z,70.18
2022-11-19T17:17:33.225Z,69.95
2022-11-19T17:20:24.273Z,70.12
2022-11-19T17:22:52.246Z,70.07
2022-11-19T17:25:20.517Z,70.01
2022-11-19T17:27:54.766Z,70.07
2022-11-19T17:30:30.282Z,70.06
2022-11-19T17:33:01.217Z,70.24
2022-11-19T17:35:43.865Z,70.17
2022-11-19T17:38:18.974Z,70.43
2022-11-19T17:40:50.780Z,70.37
2022-11-19T17:43:42.684Z,70.50
2022-11-19T17:46:10.717Z,70.35
2022-11-19T17:48:41.657Z,70.43
2022-11-19T17:51:14.847Z,70.44
2022-11-19T17:53:43.358Z,70.52
2022-11-19T17:56:24.708Z,70.49
2022-11-19T17:58:52.823Z,70.54
2022-11-19T18:01:21.093Z,70.59
2022-11-19T18:03:49.156Z,70.46
2022-11-19T18:06:18.015Z,70.48
2022-11-19T18:08:46.598Z,70.64
2022-11-19T18:11:18.150Z,70.66
2022-11-19T18:13:47.856Z,70.36
2022-11-19T18:16:18.388Z,70.38
2022-11-19T18:18:46.558Z,70.36
2022-11-19T18:21:16.998Z,70.38
2022-11-19T18:23:45.990Z,70.44
2022-11-19T18:26:17.223Z,70.46
2022-11-19T18:28:48.890Z,70.52
2022-11-19T18:31:26.210Z,70.41
2022-11-19T18:33:55.396Z,70.45
2022-11-19T18:36:25.053Z,70.52
2022-11-19T18:38:55.701Z,70.25
2022-11-19T18:41:23.874Z,70.34
2022-11-19T18:44:10.178Z,70.43
2022-11-19T18:46:38.042Z,70.28
2022-11-19T18:49:06.206Z,70.40
2022-11-19T18:51:34.430Z,69.90
2022-11-19T18:54:02.452Z,70.15
2022-11-19T18:56:30.486Z,70.30
2022-11-19T18:59:04.329Z,70.13
2022-11-19T19:01:33.220Z,70.29
2022-11-19T19:04:01.202Z,70.31
2022-11-19T19:06:30.718Z,70.33
2022-11-19T19:08:58.860Z,70.10
2022-11-19T19:11:45.258Z,70.21
2022-11-19T19:14:13.227Z,70.55
2022-11-19T19:16:41.398Z,70.32
2022-11-19T19:19:17.333Z,70.37
2022-11-19T19:21:45.117Z,70.35
2022-11-19T19:24:13.474Z,70.43
2022-11-19T19:26:41.467Z,70.45
2022-11-19T19:29:09.443Z,70.41
2022-11-19T19:31:37.706Z,70.33
2022-11-19T19:34:06.042Z,70.56
2022-11-19T19:36:34.057Z,70.44
2022-11-19T19:39:02.137Z,70.70
2022-11-19T19:41:30.095Z,70.49
2022-11-19T19:44:01.029Z,70.36
2022-11-19T19:46:29.614Z,70.43
2022-11-19T19:48:58.717Z,70.33
2022-11-19T19:51:29.132Z,70.19
2022-11-19T19:53:57.286Z,70.17
2022-11-19T19:56:29.691Z,70.14
2022-11-19T19:58:58.731Z,70.43
2022-11-19T20:01:32.133Z,70.35
2022-11-19T20:04:03.002Z,70.11
2022-11-19T20:06:31.980Z,70.24
2022-11-19T20:09:03.171Z,70.12
2022-11-19T20:11:35.358Z,70.06
2022-11-19T20:14:03.715Z,70.23
2022-11-19T20:16:33.400Z,70.36
2022-11-19T20:19:01.808Z,70.16
2022-11-19T20:21:34.157Z,70.28
2022-11-19T20:24:08.744Z,70.27
2022-11-19T20:26:41.097Z,70.19
2022-11-19T20:29:12.310Z,70.25
2022-11-19T20:31:41.224Z,70.10
2022-11-19T20:34:10.070Z,70.20
2022-11-19T20:36:38.021Z,70.17
2022-11-19T20:39:06.708Z,70.01
2022-11-19T20:41:53.942Z,70.48
2022-11-19T20:44:23.170Z,70.29
2022-11-19T20:47:03.217Z,70.40
2022-11-19T20:49:35.059Z,70.35
2022-11-19T20:52:03.803Z,70.21
2022-11-19T20:54:32.712Z,70.30
2022-11-19T20:57:01.106Z,70.47
2022-11-19T20:59:29.680Z,70.39
2022-11-19T21:01:57.661Z,70.46
2022-11-19T21:04:28.654Z,70.39
2022-11-19T21:06:56.712Z,70.45
2022-11-19T21:09:25.335Z,70.55
2022-11-19T21:11:53.821Z,70.60
2022-11-19T21:14:21.673Z,70.58
2022-11-19T21:16:49.648Z,70.34
2022-11-19T21:19:17.674Z,70.81
2022-11-19T21:21:45.826Z,70.74
2022-11-19T21:24:13.935Z,70.68
2022-11-19T21:26:42.032Z,70.65
2022-11-19T21:29:09.889Z,70.78
2022-11-19T21:31:48.553Z,70.84
2022-11-19T21:34:20.685Z,71.00
2022-11-19T21:36:49.887Z,70.76
2022-11-19T21:39:19.526Z,70.89
2022-11-19T21:41:48.061Z,70.84
2022-11-19T21:44:20.991Z,70.78
2022-11-19T21:46:50.455Z,70.71
2022-11-19T21:49:19.014Z,70.62
2022-11-19T21:51:47.251Z,70.92
2022-11-19T21:54:15.072Z,70.70
2022-11-19T21:56:43.241Z,70.81
2022-11-19T21:59:11.313Z,70.70
2022-11-19T22:01:39.204Z,70.81
2022-11-19T22:04:07.352Z,70.82
2022-11-19T22:06:35.319Z,70.94
2022-11-19T22:09:03.287Z,70.89
2022-11-19T22:11:32.172Z,71.00
2022-11-19T22:14:03.425Z,70.52
2022-11-19T22:16:37.227Z,70.78
2022-11-19T22:19:06.017Z,70.81
2022-11-19T22:21:34.339Z,70.82
2022-11-19T22:26:48.125Z,70.91
2022-11-19T22:29:16.319Z,70.85
2022-11-19T22:31:44.082Z,71.08
2022-11-19T22:34:12.387Z,70.94
2022-11-19T22:36:40.542Z,70.80
2022-11-19T22:39:09.391Z,70.96
2022-11-19T22:41:37.537Z,70.96
2022-11-19T22:44:05.762Z,70.99
2022-11-19T22:46:33.683Z,70.87
2022-11-19T22:49:01.597Z,70.86
2022-11-19T22:51:29.461Z,71.12
2022-11-19T22:53:57.315Z,71.29
2022-11-19T22:56:27.856Z,70.88
2022-11-19T22:58:56.745Z,71.12
2022-11-19T23:01:27.278Z,71.09
2022-11-19T23:03:56.898Z,70.98
2022-11-19T23:06:25.610Z,71.13
2022-11-19T23:08:53.947Z,71.04
2022-11-19T23:11:41.979Z,71.20
2022-11-19T23:14:13.443Z,71.05
2022-11-19T23:16:42.131Z,71.09
2022-11-19T23:19:11.924Z,71.10
2022-11-19T23:21:40.715Z,71.29
2022-11-19T23:24:10.512Z,71.32
2022-11-19T23:26:38.714Z,71.21
2022-11-19T23:29:07.383Z,71.21
2022-11-19T23:31:38.522Z,71.02
2022-11-19T23:34:07.413Z,71.11
2022-11-19T23:36:37.939Z,71.27
2022-11-19T23:39:09.699Z,71.26
2022-11-19T23:41:37.566Z,71.21
2022-11-19T23:44:05.432Z,71.26
2022-11-19T23:46:35.140Z,71.17
2022-11-19T23:49:04.080Z,71.30
2022-11-19T23:51:35.167Z,71.29
2022-11-19T23:54:03.770Z,71.22
2022-11-19T23:56:34.242Z,71.31
2022-11-19T23:59:03.062Z,71.43
